createdAt,value
2022-09-23T00:02:28.038Z,1.83
2022-09-23T00:05:33.352Z,1.87
2022-09-23T00:08:38.019Z,2.30
2022-09-23T00:11:41.571Z,4.28
2022-09-23T00:14:45.477Z,4.60
2022-09-23T00:17:49.149Z,4.70
2022-09-23T00:20:53.772Z,5.10
2022-09-23T00:23:57.457Z,3.77
2022-09-23T00:27:02.113Z,3.97
2022-09-23T00:30:08.329Z,4.43
2022-09-23T00:33:12.457Z,3.67
2022-09-23T00:36:16.922Z,3.50
2022-09-23T00:39:20.844Z,4.13
2022-09-23T00:42:25.207Z,4.60
2022-09-23T00:45:29.927Z,4.32
2022-09-23T00:48:33.584Z,3.80
2022-09-23T00:51:53.112Z,5.73
2022-09-23T00:54:59.343Z,7.63
2022-09-23T00:58:06.479Z,5.13
2022-09-23T01:01:10.072Z,2.58
2022-09-23T01:04:15.243Z,2.17
2022-09-23T01:07:19.613Z,2.33
2022-09-23T01:10:23.845Z,2.10
2022-09-23T01:13:55.854Z,3.30
2022-09-23T01:17:16.865Z,3.63
2022-09-23T01:20:56.388Z,2.47
2022-09-23T01:24:36.230Z,2.77
2022-09-23T01:27:51.479Z,2.23
2022-09-23T01:31:13.261Z,4.43
2022-09-23T01:34:26.481Z,4.60
2022-09-23T01:37:45.531Z,3.45
2022-09-23T01:41:25.592Z,3.40
2022-09-23T01:44:53.865Z,2.60
2022-09-23T01:48:43.120Z,3.35
2022-09-23T01:51:54.689Z,2.90
2022-09-23T01:55:20.683Z,2.80
2022-09-23T01:58:57.866Z,2.17
2022-09-23T02:02:04.846Z,2.27
2022-09-23T02:05:33.486Z,2.20
2022-09-23T02:08:45.497Z,1.58
2022-09-23T02:11:51.921Z,1.90
2022-09-23T02:15:31.345Z,2.57
2022-09-23T02:18:42.667Z,2.80
2022-09-23T02:21:49.698Z,1.90
2022-09-23T02:24:55.165Z,2.33
2022-09-23T02:28:08.625Z,2.25
2022-09-23T02:31:22.187Z,2.53
2022-09-23T02:34:44.225Z,2.50
2022-09-23T02:37:59.806Z,2.60
2022-09-23T02:41:34.627Z,2.72
2022-09-23T02:44:38.247Z,2.45
2022-09-23T02:47:45.142Z,2.63
2022-09-23T02:50:49.496Z,3.40
2022-09-23T02:53:59.331Z,2.22
2022-09-23T02:57:06.096Z,2.00
2022-09-23T03:00:10.554Z,1.70
2022-09-23T03:03:45.031Z,2.30
2022-09-23T03:07:09.270Z,1.90
2022-09-23T03:10:18.157Z,1.40
2022-09-23T03:13:52.047Z,1.33
2022-09-23T03:17:25.634Z,1.67
2022-09-23T03:20:55.614Z,1.40
2022-09-23T03:24:03.366Z,1.97
2022-09-23T03:27:14.585Z,1.70
2022-09-23T03:30:19.610Z,1.40
2022-09-23T03:33:29.004Z,1.77
2022-09-23T03:36:52.550Z,1.90
2022-09-23T03:40:02.608Z,1.83
2022-09-23T03:43:05.628Z,1.70
2022-09-23T03:46:09.501Z,2.00
2022-09-23T03:49:19.124Z,1.73
2022-09-23T03:52:24.081Z,1.80
2022-09-23T03:55:27.277Z,1.50
2022-09-23T03:58:30.385Z,1.42
2022-09-23T04:01:33.901Z,1.58
2022-09-23T04:04:38.291Z,1.15
2022-09-23T04:07:42.241Z,1.30
2022-09-23T04:10:46.904Z,1.23
2022-09-23T04:13:51.223Z,0.93
2022-09-23T04:16:54.794Z,1.30
2022-09-23T04:19:58.698Z,1.17
2022-09-23T04:23:02.103Z,1.40
2022-09-23T04:26:06.904Z,0.90
2022-09-23T04:29:12.481Z,1.80
2022-09-23T04:32:16.331Z,1.40
2022-09-23T04:35:20.331Z,1.33
2022-09-23T04:38:23.807Z,1.33
2022-09-23T04:41:27.362Z,1.10
2022-09-23T04:44:31.097Z,1.05
2022-09-23T04:47:34.624Z,1.60
2022-09-23T04:50:39.137Z,1.33
2022-09-23T04:53:45.557Z,1.50
2022-09-23T04:56:49.015Z,1.80
2022-09-23T04:59:52.696Z,1.50
2022-09-23T05:02:56.152Z,1.90
2022-09-23T05:06:00.405Z,2.28
2022-09-23T05:09:09.156Z,2.00
2022-09-23T05:12:12.880Z,1.57
2022-09-23T05:15:17.027Z,1.42
2022-09-23T05:18:20.988Z,1.10
2022-09-23T05:21:27.710Z,1.50
2022-09-23T05:24:31.228Z,1.37
2022-09-23T05:27:34.721Z,1.30
2022-09-23T05:30:38.232Z,1.70
2022-09-23T05:33:42.948Z,1.20
2022-09-23T05:36:46.356Z,1.27
2022-09-23T05:39:50.273Z,1.30
2022-09-23T05:42:53.707Z,1.20
2022-09-23T05:46:12.078Z,1.30
2022-09-23T05:49:15.670Z,1.10
2022-09-23T05:52:19.517Z,1.20
2022-09-23T05:55:22.982Z,1.70
2022-09-23T05:58:26.888Z,2.17
2022-09-23T06:01:35.718Z,1.40
2022-09-23T06:04:39.694Z,1.65
2022-09-23T06:07:43.219Z,2.03
2022-09-23T06:10:53.555Z,1.27
2022-09-23T06:14:02.919Z,2.37
2022-09-23T06:17:07.360Z,1.85
2022-09-23T06:20:11.730Z,1.13
2022-09-23T06:23:15.530Z,1.38
2022-09-23T06:26:19.131Z,1.07
2022-09-23T06:29:22.930Z,1.77
2022-09-23T06:32:26.534Z,1.65
2022-09-23T06:35:33.362Z,1.30
2022-09-23T06:38:40.833Z,1.55
2022-09-23T06:41:46.271Z,1.77
2022-09-23T06:44:49.803Z,1.60
2022-09-23T06:47:58.704Z,1.60
2022-09-23T06:51:04.545Z,1.23
2022-09-23T06:54:08.948Z,1.27
2022-09-23T06:57:12.420Z,1.20
2022-09-23T07:00:16.428Z,1.60
2022-09-23T07:03:21.391Z,1.35
2022-09-23T07:06:25.200Z,1.90
2022-09-23T07:09:28.645Z,1.50
2022-09-23T07:12:35.593Z,1.50
2022-09-23T07:15:39.180Z,1.37
2022-09-23T07:18:43.535Z,1.60
2022-09-23T07:21:47.104Z,1.40
2022-09-23T07:24:51.036Z,1.30
2022-09-23T07:27:56.842Z,1.10
2022-09-23T07:31:07.664Z,1.43
2022-09-23T07:34:14.627Z,1.83
2022-09-23T07:37:19.286Z,2.13
2022-09-23T07:40:24.085Z,2.30
2022-09-23T07:43:31.015Z,1.80
2022-09-23T07:46:36.588Z,2.00
2022-09-23T07:49:40.873Z,1.73
2022-09-23T07:52:44.650Z,4.13
2022-09-23T07:55:56.993Z,2.03
2022-09-23T07:59:00.872Z,2.70
2022-09-23T08:02:05.115Z,2.30
2022-09-23T08:05:09.976Z,2.10
2022-09-23T08:08:14.994Z,2.22
2022-09-23T08:11:18.883Z,2.53
2022-09-23T08:14:26.348Z,2.20
2022-09-23T08:17:29.897Z,1.83
2022-09-23T08:20:47.430Z,2.17
2022-09-23T08:23:52.407Z,1.60
2022-09-23T08:26:56.446Z,1.23
2022-09-23T08:30:00.161Z,1.13
2022-09-23T08:33:04.060Z,1.17
2022-09-23T08:36:08.419Z,1.40
2022-09-23T08:39:20.217Z,1.20
2022-09-23T08:42:32.876Z,3.63
2022-09-23T08:45:39.442Z,1.70
2022-09-23T08:48:46.927Z,1.33
2022-09-23T08:51:52.354Z,1.55
2022-09-23T08:54:56.994Z,1.40
2022-09-23T08:58:25.958Z,1.80
2022-09-23T09:01:42.204Z,2.00
2022-09-23T09:04:53.005Z,1.37
2022-09-23T09:07:59.910Z,1.27
2022-09-23T09:11:04.152Z,1.38
2022-09-23T09:14:26.355Z,1.58
2022-09-23T09:18:10.677Z,1.40
2022-09-23T09:21:15.564Z,1.43
2022-09-23T09:24:27.877Z,1.25
2022-09-23T09:27:32.100Z,1.10
2022-09-23T09:30:36.539Z,1.40
2022-09-23T09:33:52.181Z,1.03
2022-09-23T09:37:06.993Z,1.40
2022-09-23T09:40:17.907Z,1.80
2022-09-23T09:43:24.930Z,1.85
2022-09-23T09:46:50.404Z,2.13
2022-09-23T09:50:05.470Z,2.23
2022-09-23T09:53:30.255Z,2.90
2022-09-23T09:56:36.654Z,2.13
2022-09-23T09:59:44.083Z,2.20
2022-09-23T10:02:52.939Z,2.30
2022-09-23T10:05:58.763Z,2.70
2022-09-23T10:09:19.626Z,2.97
2022-09-23T10:12:26.052Z,3.40
2022-09-23T10:15:33.710Z,4.32
2022-09-23T10:18:49.417Z,4.30
2022-09-23T10:21:57.440Z,5.30
2022-09-23T10:25:08.312Z,3.83
2022-09-23T10:28:47.745Z,3.65
2022-09-23T10:32:16.197Z,2.80
2022-09-23T10:35:24.867Z,3.45
2022-09-23T10:38:28.881Z,3.60
2022-09-23T10:42:22.920Z,3.47
2022-09-23T10:45:53.942Z,3.28
2022-09-23T10:49:10.446Z,2.20
2022-09-23T10:52:41.063Z,2.70
2022-09-23T10:56:07.865Z,5.03
2022-09-23T10:59:19.625Z,3.73
2022-09-23T11:02:29.564Z,3.55
2022-09-23T11:05:47.312Z,3.50
2022-09-23T11:08:58.140Z,2.97
2022-09-23T11:12:07.888Z,3.73
2022-09-23T11:15:30.606Z,3.03
2022-09-23T11:18:46.653Z,4.25
2022-09-23T11:22:08.788Z,4.30
2022-09-23T11:25:39.351Z,4.40
2022-09-23T11:29:27.759Z,5.80
2022-09-23T11:32:56.438Z,4.87
2022-09-23T11:36:06.350Z,7.18
2022-09-23T11:39:26.077Z,8.10
2022-09-23T11:42:37.516Z,7.18
2022-09-23T11:46:21.519Z,8.20
2022-09-23T11:49:51.381Z,6.83
2022-09-23T11:53:15.850Z,6.53
2022-09-23T11:56:34.235Z,6.65
2022-09-23T11:59:50.264Z,7.70
2022-09-23T12:03:12.646Z,6.93
2022-09-23T12:06:37.687Z,5.73
2022-09-23T12:09:58.251Z,6.93
2022-09-23T12:13:33.247Z,6.85
2022-09-23T12:16:37.504Z,7.88
2022-09-23T12:20:08.325Z,7.77
2022-09-23T12:23:47.727Z,6.90
2022-09-23T12:27:00.136Z,7.80
2022-09-23T12:30:13.219Z,7.57
2022-09-23T12:33:34.171Z,8.50
2022-09-23T12:36:40.676Z,9.00
2022-09-23T12:39:47.559Z,9.30
2022-09-23T12:42:52.571Z,10.05
2022-09-23T12:46:19.944Z,10.18
2022-09-23T12:49:26.579Z,9.65
2022-09-23T12:52:35.448Z,9.53
2022-09-23T12:55:45.413Z,10.10
2022-09-23T12:58:48.681Z,9.63
2022-09-23T13:01:53.037Z,11.75
2022-09-23T13:05:26.795Z,9.50
2022-09-23T13:08:30.688Z,10.03
2022-09-23T13:11:37.630Z,9.33
2022-09-23T13:14:46.447Z,10.13
2022-09-23T13:17:50.213Z,7.80
2022-09-23T13:20:57.772Z,10.07
2022-09-23T13:24:13.615Z,10.80
2022-09-23T13:27:22.956Z,9.97
2022-09-23T13:30:27.350Z,10.68
2022-09-23T13:33:57.915Z,10.23
2022-09-23T13:37:23.168Z,11.18
2022-09-23T13:40:30.117Z,11.57
2022-09-23T13:43:41.613Z,9.47
2022-09-23T13:46:49.514Z,7.68
2022-09-23T13:49:54.286Z,7.10
2022-09-23T13:53:01.844Z,7.45
2022-09-23T13:56:14.608Z,7.67
2022-09-23T13:59:28.938Z,7.83
2022-09-23T14:02:32.887Z,7.50
2022-09-23T14:05:39.577Z,6.57
2022-09-23T14:08:47.435Z,7.50
2022-09-23T14:11:52.954Z,6.43
2022-09-23T14:14:57.699Z,6.93
2022-09-23T14:18:07.410Z,6.55
2022-09-23T14:21:35.304Z,7.18
2022-09-23T14:24:39.408Z,7.05
2022-09-23T14:27:44.435Z,6.60
2022-09-23T14:30:50.611Z,7.50
2022-09-23T14:33:53.810Z,6.97
2022-09-23T14:37:15.772Z,5.07
2022-09-23T14:40:23.873Z,5.80
2022-09-23T14:43:30.873Z,5.93
2022-09-23T14:46:37.571Z,5.97
2022-09-23T14:50:08.710Z,6.57
2022-09-23T14:53:24.429Z,5.80
2022-09-23T14:56:28.444Z,3.88
2022-09-23T14:59:37.083Z,4.00
2022-09-23T15:02:44.561Z,3.77
2022-09-23T15:05:50.162Z,8.35
2022-09-23T15:08:55.900Z,8.35
2022-09-23T15:12:12.684Z,3.58
2022-09-23T15:15:16.724Z,3.10
2022-09-23T15:18:24.172Z,3.77
2022-09-23T15:21:42.681Z,3.60
2022-09-23T15:24:47.148Z,3.50
2022-09-23T15:28:25.835Z,3.50
2022-09-23T15:31:29.511Z,2.23
2022-09-23T15:34:33.270Z,2.27
2022-09-23T15:37:37.082Z,2.63
2022-09-23T15:40:40.896Z,2.40
2022-09-23T15:43:45.612Z,3.20
2022-09-23T15:46:51.218Z,3.20
2022-09-23T15:49:54.512Z,2.80
2022-09-23T15:52:58.122Z,2.92
2022-09-23T15:56:01.441Z,2.58
2022-09-23T15:59:05.596Z,3.20
2022-09-23T16:02:19.327Z,3.47
2022-09-23T16:05:49.467Z,2.97
2022-09-23T16:08:54.076Z,6.60
2022-09-23T16:11:58.170Z,3.28
2022-09-23T16:15:02.621Z,2.30
2022-09-23T16:18:07.554Z,2.17
2022-09-23T16:21:14.289Z,2.27
2022-09-23T16:24:19.413Z,2.35
2022-09-23T16:27:23.953Z,2.35
2022-09-23T16:30:30.483Z,2.58
2022-09-23T16:33:34.973Z,2.70
2022-09-23T16:36:41.980Z,2.67
2022-09-23T16:39:46.655Z,4.10
2022-09-23T16:42:52.825Z,3.22
2022-09-23T16:45:57.407Z,3.95
2022-09-23T16:49:01.851Z,2.87
2022-09-23T16:52:06.267Z,3.00
2022-09-23T16:55:11.140Z,3.17
2022-09-23T16:58:16.195Z,2.90
2022-09-23T17:01:48.742Z,3.03
2022-09-23T17:04:53.256Z,3.00
2022-09-23T17:07:57.955Z,3.47
2022-09-23T17:11:02.168Z,3.13
2022-09-23T17:14:07.423Z,3.50
2022-09-23T17:17:11.540Z,3.72
2022-09-23T17:20:15.412Z,3.17
2022-09-23T17:23:20.500Z,6.47
2022-09-23T17:26:27.039Z,3.92
2022-09-23T17:29:31.138Z,3.40
2022-09-23T17:32:35.031Z,3.15
2022-09-23T17:35:44.251Z,3.13
2022-09-23T17:38:49.706Z,3.03
2022-09-23T17:41:56.472Z,3.22
2022-09-23T17:45:00.353Z,2.75
2022-09-23T17:48:04.526Z,3.40
2022-09-23T17:51:19.293Z,2.83
2022-09-23T17:54:23.693Z,2.93
2022-09-23T17:57:27.419Z,3.42
2022-09-23T18:00:31.511Z,2.90
2022-09-23T18:03:34.848Z,2.55
2022-09-23T18:06:39.272Z,2.80
2022-09-23T18:09:42.993Z,2.13
2022-09-23T18:12:47.044Z,2.45
2022-09-23T18:15:50.252Z,2.40
2022-09-23T18:19:00.089Z,2.50
2022-09-23T18:22:03.907Z,2.47
2022-09-23T18:25:28.621Z,2.30
2022-09-23T18:28:34.672Z,2.88
2022-09-23T18:31:39.685Z,2.42
2022-09-23T18:34:43.381Z,2.40
2022-09-23T18:37:47.492Z,1.97
2022-09-23T18:40:56.683Z,2.50
2022-09-23T18:44:00.929Z,2.40
2022-09-23T18:47:04.724Z,2.45
2022-09-23T18:50:30.096Z,2.38
2022-09-23T18:53:34.853Z,2.30
2022-09-23T18:56:43.831Z,2.30
2022-09-23T18:59:47.771Z,2.03
2022-09-23T19:02:53.727Z,2.70
2022-09-23T19:06:08.107Z,2.13
2022-09-23T19:09:12.570Z,1.97
2022-09-23T19:12:16.207Z,2.20
2022-09-23T19:15:19.235Z,2.28
2022-09-23T19:18:22.297Z,2.55
2022-09-23T19:21:25.635Z,2.65
2022-09-23T19:24:29.311Z,3.00
2022-09-23T19:27:35.469Z,3.00
2022-09-23T19:30:39.422Z,3.17
2022-09-23T19:33:48.573Z,2.67
2022-09-23T19:36:59.686Z,3.90
2022-09-23T19:40:03.607Z,3.13
2022-09-23T19:43:07.046Z,2.80
2022-09-23T19:46:11.044Z,3.00
2022-09-23T19:49:14.832Z,3.40
2022-09-23T19:52:19.007Z,3.58
2022-09-23T19:55:22.728Z,2.73
2022-09-23T19:58:27.345Z,2.90
2022-09-23T20:01:32.451Z,2.72
2022-09-23T20:04:36.531Z,2.42
2022-09-23T20:07:44.033Z,2.40
2022-09-23T20:10:49.025Z,2.17
2022-09-23T20:14:02.075Z,2.43
2022-09-23T20:17:06.040Z,2.40
2022-09-23T20:20:11.475Z,1.98
2022-09-23T20:23:15.001Z,2.30
2022-09-23T20:26:37.011Z,2.17
2022-09-23T20:29:40.731Z,2.20
2022-09-23T20:32:44.987Z,2.10
2022-09-23T20:35:52.500Z,1.85
2022-09-23T20:39:03.460Z,1.70
2022-09-23T20:42:09.794Z,2.20
2022-09-23T20:45:12.891Z,2.03
2022-09-23T20:48:16.027Z,1.85
2022-09-23T20:51:19.060Z,2.00
2022-09-23T20:54:23.629Z,2.00
2022-09-23T20:57:28.266Z,1.90
2022-09-23T21:00:32.398Z,1.60
2022-09-23T21:03:36.140Z,1.85
2022-09-23T21:06:40.672Z,1.75
2022-09-23T21:09:44.372Z,2.00
2022-09-23T21:12:51.342Z,1.70
2022-09-23T21:15:54.965Z,2.00
2022-09-23T21:18:59.665Z,1.80
2022-09-23T21:22:03.199Z,1.90
2022-09-23T21:28:35.784Z,1.93
2022-09-23T21:31:39.793Z,2.30
2022-09-23T21:34:43.439Z,2.08
2022-09-23T21:37:47.625Z,2.28
2022-09-23T21:41:01.624Z,2.00
2022-09-23T21:44:07.499Z,2.10
2022-09-23T21:47:10.491Z,2.20
2022-09-23T21:50:13.827Z,1.98
2022-09-23T21:53:18.313Z,2.28
2022-09-23T21:56:24.702Z,2.40
2022-09-23T21:59:28.517Z,2.17
2022-09-23T22:02:32.529Z,2.50
2022-09-23T22:05:37.769Z,2.40
2022-09-23T22:08:44.480Z,2.47
2022-09-23T22:12:08.263Z,2.10
2022-09-23T22:15:12.204Z,2.50
2022-09-23T22:18:15.453Z,2.13
2022-09-23T22:21:21.040Z,2.17
2022-09-23T22:24:24.880Z,2.55
2022-09-23T22:27:28.855Z,2.40
2022-09-23T22:30:50.354Z,3.00
2022-09-23T22:33:54.305Z,2.97
2022-09-23T22:36:59.762Z,2.50
2022-09-23T22:40:07.297Z,3.13
2022-09-23T22:43:10.997Z,3.30
2022-09-23T22:46:17.098Z,3.00
2022-09-23T22:49:20.866Z,2.50
2022-09-23T22:52:27.617Z,2.42
2022-09-23T22:55:31.366Z,2.72
2022-09-23T22:58:35.544Z,3.63
2022-09-23T23:01:39.518Z,2.93
2022-09-23T23:04:46.141Z,3.73
2022-09-23T23:07:49.879Z,3.40
2022-09-23T23:10:55.817Z,3.63
2022-09-23T23:14:01.805Z,3.30
2022-09-23T23:17:08.352Z,2.90
2022-09-23T23:20:11.999Z,2.80
2022-09-23T23:23:15.921Z,2.97
2022-09-23T23:26:22.594Z,3.00
2022-09-23T23:29:25.888Z,3.17
2022-09-23T23:32:28.846Z,2.60
2022-09-23T23:35:32.142Z,2.53
2022-09-23T23:38:39.928Z,2.35
2022-09-23T23:41:43.953Z,2.50
2022-09-23T23:44:47.210Z,2.42
2022-09-23T23:47:50.678Z,2.20
2022-09-23T23:50:55.343Z,3.17
2022-09-23T23:54:00.485Z,2.25
2022-09-23T23:57:03.485Z,2.30
